Chia-i, Taiwan
Current Conditions -  °F | °C
As of 10:00 PM on Thursday 29 Jan 2015 (Local Time) from RCMQ Reporting Station
Haze Haze  
Wind Chill: 59°   Ceiling: 400
Heat Index: 59°   Visibility: 2mi
Dew Point: 57°   Wind: 12mph
Humidity: 94%   Direction: 30°NNE
Pressure: 30.09"   Gusts: NA
Location:  23.48°N, 120.44°E
Report Text: RCMQ 291400Z 03010KT 3200 BR BKN004 BKN040 15/14 Q1019 NOSIG RMK A3009
Loading
Personal Weather Stations






























Interactive Weather Map New forecast layout! Learn more

10-Day Weather Forecast

Advertisements
Track Severe Weather on mobile